createdAt,value
2023-01-13T00:01:18.153Z,8.88
2023-01-13T00:04:21.556Z,15.43
2023-01-13T00:07:26.003Z,14.20
2023-01-13T00:10:29.811Z,10.30
2023-01-13T00:13:35.281Z,13.73
2023-01-13T00:19:46.995Z,11.93
2023-01-13T00:22:52.633Z,6.70
2023-01-13T00:25:58.065Z,8.63
2023-01-13T00:29:05.277Z,8.50
2023-01-13T00:32:11.674Z,9.75
2023-01-13T00:35:15.322Z,6.65
2023-01-13T00:38:40.553Z,6.55
2023-01-13T00:42:02.362Z,12.27
2023-01-13T00:45:07.430Z,10.32
2023-01-13T00:48:11.928Z,8.75
2023-01-13T00:51:19.524Z,9.13
2023-01-13T00:54:30.179Z,8.00
2023-01-13T00:57:36.931Z,10.30
2023-01-13T01:00:39.918Z,9.20
2023-01-13T01:03:50.476Z,6.80
2023-01-13T01:06:56.505Z,11.88
2023-01-13T01:10:05.272Z,10.77
2023-01-13T01:13:08.349Z,10.48
2023-01-13T01:16:18.725Z,15.57
2023-01-13T01:19:22.046Z,9.68
2023-01-13T01:22:30.182Z,13.48
2023-01-13T01:25:38.208Z,8.52
2023-01-13T01:28:43.398Z,11.93
2023-01-13T01:31:46.692Z,9.70
2023-01-13T01:34:51.661Z,11.00
2023-01-13T01:37:54.791Z,11.38
2023-01-13T01:40:57.294Z,10.85
2023-01-13T01:44:38.448Z,10.63
2023-01-13T01:47:50.088Z,8.82
2023-01-13T01:50:58.244Z,12.52
2023-01-13T01:54:46.834Z,7.60
2023-01-13T01:58:25.371Z,13.82
2023-01-13T02:02:00.948Z,9.40
2023-01-13T02:05:44.558Z,8.20
2023-01-13T02:09:02.621Z,16.12
2023-01-13T02:12:47.575Z,10.05
2023-01-13T02:16:23.511Z,7.93
2023-01-13T02:20:36.781Z,9.15
2023-01-13T02:25:03.539Z,7.55
2023-01-13T02:29:35.080Z,8.55
2023-01-13T02:33:32.274Z,9.85
2023-01-13T02:37:29.052Z,7.90
2023-01-13T02:41:36.297Z,7.15
2023-01-13T02:45:22.459Z,4.45
2023-01-13T02:48:57.011Z,5.47
2023-01-13T02:52:23.352Z,8.90
2023-01-13T02:55:57.719Z,5.93
2023-01-13T02:59:28.753Z,5.75
2023-01-13T03:03:04.125Z,15.77
2023-01-13T03:06:55.355Z,12.10
2023-01-13T03:14:51.544Z,6.68
2023-01-13T03:18:16.402Z,8.35
2023-01-13T03:21:59.891Z,8.18
2023-01-13T03:25:38.789Z,7.90
2023-01-13T03:29:06.855Z,9.35
2023-01-13T03:32:50.095Z,8.63
2023-01-13T03:36:17.381Z,8.18
2023-01-13T03:40:04.079Z,6.53
2023-01-13T03:44:05.186Z,8.48
2023-01-13T03:47:41.456Z,9.43
2023-01-13T03:51:21.259Z,7.28
2023-01-13T03:54:49.990Z,9.73
2023-01-13T03:58:33.772Z,7.93
2023-01-13T04:02:18.208Z,13.55
2023-01-13T04:06:07.385Z,6.60
2023-01-13T04:13:20.889Z,6.00
2023-01-13T04:16:58.757Z,12.90
2023-01-13T04:20:43.086Z,9.90
2023-01-13T04:24:18.482Z,9.50
2023-01-13T04:27:53.817Z,9.00
2023-01-13T04:31:23.388Z,9.45
2023-01-13T04:34:42.239Z,5.87
2023-01-13T04:38:22.969Z,5.60
2023-01-13T04:42:00.371Z,12.07
2023-01-13T04:48:53.295Z,5.47
2023-01-13T04:52:12.059Z,6.57
2023-01-13T04:55:56.746Z,6.72
2023-01-13T04:59:35.088Z,6.18
2023-01-13T05:03:05.303Z,6.78
2023-01-13T05:06:24.768Z,6.07
2023-01-13T05:09:54.897Z,5.30
2023-01-13T05:13:30.150Z,8.07
2023-01-13T05:17:04.440Z,10.80
2023-01-13T05:20:38.603Z,8.23
2023-01-13T05:24:29.738Z,6.30
2023-01-13T05:28:26.616Z,6.85
2023-01-13T05:32:07.555Z,9.52
2023-01-13T05:35:39.859Z,8.50
2023-01-13T05:39:16.125Z,8.77
2023-01-13T05:43:20.547Z,7.53
2023-01-13T05:46:46.261Z,7.18
2023-01-13T05:50:17.547Z,8.48
2023-01-13T05:53:47.510Z,8.63
2023-01-13T05:57:10.193Z,6.10
2023-01-13T06:00:43.510Z,11.38
2023-01-13T06:04:19.011Z,9.35
2023-01-13T06:07:51.431Z,11.50
2023-01-13T06:11:21.023Z,7.78
2023-01-13T06:14:57.855Z,8.10
2023-01-13T06:18:36.320Z,5.43
2023-01-13T06:22:33.410Z,7.05
2023-01-13T06:26:20.646Z,7.97
2023-01-13T06:29:35.976Z,9.48
2023-01-13T06:33:29.103Z,7.65
2023-01-13T06:36:55.117Z,10.48
2023-01-13T06:40:17.373Z,8.27
2023-01-13T06:43:50.014Z,8.73
2023-01-13T06:47:05.021Z,11.23
2023-01-13T06:50:43.024Z,10.48
2023-01-13T06:54:00.505Z,13.30
2023-01-13T06:57:55.875Z,10.35
2023-01-13T07:01:13.358Z,8.30
2023-01-13T07:04:48.907Z,5.45
2023-01-13T07:08:18.644Z,8.00
2023-01-13T07:11:35.601Z,9.25
2023-01-13T07:15:21.193Z,4.87
2023-01-13T07:18:59.526Z,7.80
2023-01-13T07:22:32.939Z,6.40
2023-01-13T07:25:47.544Z,7.05
2023-01-13T07:29:31.633Z,7.70
2023-01-13T07:33:05.039Z,7.37
2023-01-13T07:36:40.012Z,7.45
2023-01-13T07:40:20.613Z,7.85
2023-01-13T07:43:52.032Z,8.48
2023-01-13T07:47:25.965Z,7.55
2023-01-13T07:51:09.954Z,10.32
2023-01-13T07:54:54.051Z,6.20
2023-01-13T07:58:23.435Z,4.80
2023-01-13T08:01:57.701Z,5.32
2023-01-13T08:05:25.653Z,7.85
2023-01-13T08:10:02.689Z,7.75
2023-01-13T08:13:30.654Z,17.23
2023-01-13T08:17:31.512Z,4.53
2023-01-13T08:21:26.355Z,5.32
2023-01-13T08:25:05.254Z,5.60
2023-01-13T08:32:50.049Z,5.70
2023-01-13T08:36:14.419Z,5.87
2023-01-13T08:39:52.559Z,6.25
2023-01-13T08:47:24.454Z,4.20
2023-01-13T08:59:19.454Z,6.85
2023-01-13T09:03:02.839Z,5.95
2023-01-13T09:06:53.723Z,5.65
2023-01-13T09:10:30.530Z,4.90
2023-01-13T09:14:02.461Z,6.18
2023-01-13T09:17:38.685Z,9.20
2023-01-13T09:33:37.901Z,7.85
2023-01-13T09:45:32.559Z,9.20
2023-01-13T09:49:33.803Z,9.60
2023-01-13T09:53:51.448Z,5.15
2023-01-13T09:57:44.748Z,7.57
2023-01-13T10:01:41.342Z,6.72
2023-01-13T10:04:46.865Z,7.87
2023-01-13T10:07:53.085Z,10.15
2023-01-13T10:11:21.199Z,10.40
2023-01-13T10:14:32.134Z,10.20
2023-01-13T10:17:44.820Z,9.43
2023-01-13T10:20:57.157Z,12.27
2023-01-13T10:24:22.798Z,10.43
2023-01-13T10:27:25.643Z,9.05
2023-01-13T10:30:35.601Z,10.05
2023-01-13T10:33:38.656Z,9.15
2023-01-13T10:37:07.444Z,8.30
2023-01-13T10:40:30.229Z,9.57
2023-01-13T10:43:36.153Z,6.93
2023-01-13T10:46:52.572Z,12.43
2023-01-13T10:50:13.993Z,8.13
2023-01-13T10:53:24.099Z,15.60
2023-01-13T10:56:31.102Z,8.30
2023-01-13T10:59:33.989Z,9.85
2023-01-13T11:02:37.375Z,10.98
2023-01-13T11:05:43.111Z,10.38
2023-01-13T11:08:49.710Z,9.38
2023-01-13T11:12:03.976Z,9.60
2023-01-13T11:15:15.269Z,9.45
2023-01-13T11:19:14.634Z,11.57
2023-01-13T11:22:23.545Z,10.82
2023-01-13T11:25:41.683Z,9.32
2023-01-13T11:29:26.310Z,14.38
2023-01-13T11:32:39.576Z,11.45
2023-01-13T11:35:44.877Z,12.40
2023-01-13T11:38:57.096Z,10.95
2023-01-13T11:42:22.206Z,13.00
2023-01-13T11:46:01.466Z,7.65
2023-01-13T11:49:05.026Z,13.27
2023-01-13T11:52:24.055Z,10.60
2023-01-13T11:55:33.602Z,13.15
2023-01-13T11:59:08.864Z,9.35
2023-01-13T12:02:24.677Z,8.75
2023-01-13T12:05:59.687Z,14.20
2023-01-13T12:09:52.114Z,9.65
2023-01-13T12:13:01.170Z,14.87
2023-01-13T12:16:23.806Z,13.85
2023-01-13T12:19:34.419Z,8.80
2023-01-13T12:23:02.297Z,13.75
2023-01-13T12:26:11.797Z,10.05
2023-01-13T12:29:37.442Z,10.73
2023-01-13T12:32:41.799Z,17.35
2023-01-13T12:36:27.191Z,11.93
2023-01-13T12:39:32.917Z,17.77
2023-01-13T12:43:11.333Z,10.55
2023-01-13T12:46:19.076Z,10.18
2023-01-13T12:49:33.466Z,10.25
2023-01-13T12:52:47.114Z,13.75
2023-01-13T12:55:53.304Z,15.55
2023-01-13T12:59:19.064Z,10.75
2023-01-13T13:02:28.329Z,17.55
2023-01-13T13:05:44.535Z,12.02
2023-01-13T13:09:03.286Z,14.02
2023-01-13T13:13:00.862Z,11.43
2023-01-13T13:16:26.042Z,10.13
2023-01-13T13:19:32.019Z,13.68
2023-01-13T13:22:45.180Z,11.07
2023-01-13T13:26:07.328Z,10.70
2023-01-13T13:29:44.172Z,13.25
2023-01-13T13:33:02.443Z,12.87
2023-01-13T13:36:42.058Z,19.08
2023-01-13T13:40:04.642Z,10.18
2023-01-13T13:43:31.813Z,29.58
2023-01-13T13:46:48.796Z,15.05
2023-01-13T13:49:56.929Z,9.13
2023-01-13T13:53:10.284Z,10.13
2023-01-13T13:56:20.707Z,12.50
2023-01-13T13:59:32.404Z,9.88
2023-01-13T14:02:37.740Z,5.30
2023-01-13T14:06:00.003Z,14.40
2023-01-13T14:09:03.610Z,11.70
2023-01-13T14:12:20.199Z,10.63
2023-01-13T14:15:35.777Z,7.00
2023-01-13T14:18:46.593Z,10.13
2023-01-13T14:21:51.893Z,11.02
2023-01-13T14:24:58.036Z,13.70
2023-01-13T14:28:19.824Z,13.25
2023-01-13T14:31:25.847Z,11.77
2023-01-13T14:34:34.566Z,12.25
2023-01-13T14:37:39.523Z,14.45
2023-01-13T14:40:46.644Z,13.20
2023-01-13T14:43:51.962Z,12.15
2023-01-13T14:46:57.244Z,11.93
2023-01-13T14:50:33.076Z,10.60
2023-01-13T14:53:57.370Z,8.35
2023-01-13T14:57:27.751Z,13.57
2023-01-13T15:00:33.314Z,13.00
2023-01-13T15:03:43.212Z,12.90
2023-01-13T15:06:47.780Z,14.07
2023-01-13T15:09:55.103Z,12.90
2023-01-13T15:16:34.964Z,14.23
2023-01-13T15:19:37.877Z,14.05
2023-01-13T15:22:45.907Z,10.07
2023-01-13T15:25:50.627Z,11.07
2023-01-13T15:28:57.782Z,11.60
2023-01-13T15:32:02.003Z,13.77
2023-01-13T15:35:05.404Z,9.60
2023-01-13T15:38:16.603Z,13.70
2023-01-13T15:41:40.156Z,16.12
2023-01-13T15:45:01.318Z,11.25
2023-01-13T15:48:05.229Z,13.10
2023-01-13T15:51:13.931Z,14.73
2023-01-13T15:54:19.889Z,13.43
2023-01-13T15:57:24.638Z,11.10
2023-01-13T16:00:28.698Z,15.63
2023-01-13T16:03:41.838Z,12.40
2023-01-13T16:06:44.784Z,12.68
2023-01-13T16:09:48.422Z,14.05
2023-01-13T16:12:52.048Z,17.33
2023-01-13T16:16:22.276Z,13.90
2023-01-13T16:19:28.059Z,11.60
2023-01-13T16:22:53.383Z,13.02
2023-01-13T16:25:56.168Z,23.08
2023-01-13T16:28:59.498Z,14.10
2023-01-13T16:32:02.366Z,16.50
2023-01-13T16:35:08.686Z,11.98
2023-01-13T16:38:17.946Z,12.65
2023-01-13T16:41:26.366Z,13.15
2023-01-13T16:44:31.949Z,17.35
2023-01-13T16:47:40.128Z,16.50
2023-01-13T16:50:45.237Z,18.33
2023-01-13T16:53:51.503Z,17.95
2023-01-13T16:56:58.269Z,15.18
2023-01-13T17:00:06.389Z,25.25
2023-01-13T17:03:11.187Z,13.82
2023-01-13T17:06:18.215Z,16.27
2023-01-13T17:09:25.428Z,14.20
2023-01-13T17:12:29.050Z,14.25
2023-01-13T17:15:36.864Z,11.88
2023-01-13T17:18:40.702Z,11.93
2023-01-13T17:21:43.677Z,17.73
2023-01-13T17:24:48.755Z,13.10
2023-01-13T17:27:54.372Z,14.23
2023-01-13T17:30:57.414Z,12.43
2023-01-13T17:34:03.902Z,10.50
2023-01-13T17:37:08.009Z,11.45
2023-01-13T17:40:11.160Z,14.48
2023-01-13T17:43:16.566Z,16.20
2023-01-13T17:46:20.422Z,8.30
2023-01-13T17:49:28.745Z,8.93
2023-01-13T17:52:31.778Z,13.45
2023-01-13T17:55:38.090Z,18.48
2023-01-13T17:58:47.799Z,16.80
2023-01-13T18:01:51.937Z,20.77
2023-01-13T18:04:55.491Z,17.42
2023-01-13T18:08:01.160Z,22.80
2023-01-13T18:11:07.132Z,29.52
2023-01-13T18:14:16.773Z,18.70
2023-01-13T18:17:20.662Z,27.73
2023-01-13T18:20:41.924Z,19.48
2023-01-13T18:24:06.175Z,19.50
2023-01-13T18:27:19.399Z,17.62
2023-01-13T18:30:23.102Z,15.85
2023-01-13T18:33:29.600Z,17.42
2023-01-13T18:36:36.024Z,16.85
2023-01-13T18:42:53.695Z,22.17
2023-01-13T18:46:03.463Z,21.10
2023-01-13T18:49:06.883Z,22.40
2023-01-13T18:52:12.427Z,20.40
2023-01-13T18:55:16.288Z,24.67
2023-01-13T18:58:20.901Z,13.05
2023-01-13T19:01:26.700Z,17.60
2023-01-13T19:04:32.673Z,14.38
2023-01-13T19:07:37.162Z,20.30
2023-01-13T19:10:40.104Z,18.45
2023-01-13T19:13:45.938Z,18.27
2023-01-13T19:16:51.888Z,18.15
2023-01-13T19:20:00.508Z,17.95
2023-01-13T19:23:03.333Z,23.75
2023-01-13T19:26:08.664Z,14.23
2023-01-13T19:29:12.001Z,17.75
2023-01-13T19:32:16.212Z,19.85
2023-01-13T19:35:41.810Z,18.23
2023-01-13T19:38:45.256Z,21.20
2023-01-13T19:42:08.025Z,12.93
2023-01-13T19:45:26.796Z,22.37
2023-01-13T19:48:31.961Z,20.30
2023-01-13T19:51:36.048Z,19.77
2023-01-13T19:54:41.217Z,28.05
2023-01-13T19:57:47.446Z,22.13
2023-01-13T20:00:54.273Z,23.45
2023-01-13T20:04:03.187Z,24.27
2023-01-13T20:07:06.596Z,21.55
2023-01-13T20:10:13.407Z,28.12
2023-01-13T20:13:17.990Z,22.83
2023-01-13T20:16:26.912Z,32.05
2023-01-13T20:19:29.957Z,20.75
2023-01-13T20:22:32.906Z,27.70
2023-01-13T20:25:55.554Z,25.05
2023-01-13T20:29:01.060Z,25.25
2023-01-13T20:32:24.129Z,20.90
2023-01-13T20:35:57.491Z,27.08
2023-01-13T20:39:08.858Z,26.58
2023-01-13T20:42:30.973Z,31.12
2023-01-13T20:45:34.410Z,23.20
2023-01-13T20:48:41.818Z,21.75
2023-01-13T20:52:09.734Z,26.90
2023-01-13T20:55:19.864Z,22.35
2023-01-13T20:58:47.075Z,20.73
2023-01-13T21:01:51.305Z,21.50
2023-01-13T21:04:56.326Z,22.17
2023-01-13T21:08:01.665Z,20.15
2023-01-13T21:11:10.956Z,24.45
2023-01-13T21:14:37.067Z,26.62
2023-01-13T21:21:57.742Z,20.50
2023-01-13T21:25:28.562Z,19.48
2023-01-13T21:28:36.852Z,20.80
2023-01-13T21:31:45.056Z,31.10
2023-01-13T21:34:51.594Z,29.20
2023-01-13T21:37:54.434Z,29.60
2023-01-13T21:41:01.562Z,30.70
2023-01-13T21:44:38.309Z,25.08
2023-01-13T21:47:49.882Z,19.27
2023-01-13T21:50:53.256Z,17.30
2023-01-13T21:53:58.233Z,21.75
2023-01-13T21:57:04.768Z,23.42
2023-01-13T22:00:11.617Z,15.90
2023-01-13T22:03:20.185Z,20.00
2023-01-13T22:06:26.031Z,20.67
2023-01-13T22:09:30.632Z,19.80
2023-01-13T22:12:34.281Z,19.27
2023-01-13T22:15:38.190Z,18.98
2023-01-13T22:18:41.980Z,19.70
2023-01-13T22:22:14.632Z,20.33
2023-01-13T22:25:20.612Z,27.60
2023-01-13T22:28:34.206Z,22.95
2023-01-13T22:31:41.108Z,22.08
2023-01-13T22:34:51.846Z,19.92
2023-01-13T22:37:56.077Z,22.05
2023-01-13T22:41:03.324Z,18.92
2023-01-13T22:44:13.063Z,21.08
2023-01-13T22:47:16.488Z,22.42
2023-01-13T22:50:23.236Z,23.23
2023-01-13T22:53:28.735Z,30.70
2023-01-13T22:56:34.621Z,25.33
2023-01-13T22:59:49.858Z,21.90
2023-01-13T23:02:54.350Z,29.23
2023-01-13T23:06:00.121Z,21.23
2023-01-13T23:09:03.958Z,26.98
2023-01-13T23:12:16.960Z,24.90
2023-01-13T23:15:22.387Z,27.80
2023-01-13T23:18:31.025Z,16.87
2023-01-13T23:21:41.926Z,17.77
2023-01-13T23:24:46.135Z,18.27
2023-01-13T23:27:48.734Z,20.40
2023-01-13T23:30:56.588Z,16.65
2023-01-13T23:34:20.337Z,17.02
2023-01-13T23:37:26.509Z,24.12
2023-01-13T23:40:30.387Z,21.27
2023-01-13T23:43:36.185Z,22.27
2023-01-13T23:46:39.441Z,19.87
2023-01-13T23:49:42.980Z,22.48
2023-01-13T23:52:48.200Z,18.73
2023-01-13T23:55:57.305Z,28.77
2023-01-13T23:59:00.680Z,14.80
